首页
METAR-TAF:

METAR-TAF

机场 :

巴兰基亚, 哥伦比亚

纬度: 10-53N, 经度: 074-47W, 海拔: 14米

当前天气观测

该预报发布于54分钟前的16:00 UTC
风速12节,风向北转东北
温度 30°C
湿度 70%
气压 1013 hPa
能见度10公里或以上
少量云层高于1500英尺

METAR: SKBQ 131600Z 02012KT 9999 FEW015 30/24 A2990

时间: 11:54 (16:54 UTC)

预报

该预报发布于5小时和54分钟前的11:00 UTC
预报有效从13日的 12点(UTC)到 14日的 12点(UTC)
风速12节,风向
能见度10公里或以上
散云层高于1700英尺

TAF: SKBQ 131100Z 1312/1412 01012KT 9999 SCT017 TX32/1318Z TN24/1411Z

超过4000个机场的气象观测和天气预报(METAR&TAF报告)。

可查询的气象台以黄色和红色小点在地图上表示。

将鼠标移到小点上方,可查看气象台名称。

然后点击查看天气观测和预报。

如需切换地图:点击带黑十字的绿色按钮放大地图;点击带横线的绿色按钮缩小地图;或者点击绿色箭头查看邻近地区的地图。


METAR-TAF: